• Join FlightAware (Why Join?)
  • Login
  • US Flag 
02:03AM EDT


 

Airport Tracker/Info


-or-


 

Live Flight TrackerFlight Track Log ✈ DAL3974 ✈ 25-May-2013 ✈ KCVG - KJFK

Flight Track Log - Related Links

Times and Time Zones

All times are in EDT time to prevent confusion due to time zone crossing. See the DAL3974 flight status page for this flight to view local times or setup timezone preferences in your user account.

Time Position Orientation Groundspeed Altitude Reporting Facility
EDT Latitude Longitude Course Direction KTS MPH feet Rate Location/Type
06:45PM 39.0500 -84.6833 North 151 174 1,200  Level Cincinnati TRACON
06:45PM 39.0500 -84.7000 270° West 156 180 1,900 1,740 Climbing Cincinnati TRACON
06:46PM 39.0500 -84.7667 270° West 235 270 3,500 2,160 Climbing Cincinnati TRACON
06:47PM 39.0833 -84.8167 311° West 268 308 6,300 2,760 Climbing Cincinnati TRACON
06:48PM 39.0457 -84.4126 15° North  Level FlightAware Approximate
06:48PM 39.1617 -84.8211 357° North 269 310 9,400  Level Indianapolis Center
06:49PM 39.1539 -84.4000 North  Level FlightAware Approximate
06:49PM 39.2247 -84.7564 38° Northeast 297 342 12,100  Level Indianapolis Center
06:50PM 39.2634 -84.4000 North  Level FlightAware Approximate
06:50PM 39.2914 -84.6850 40° Northeast 307 353 14,200  Level Indianapolis Center
06:51PM 39.3619 -84.6094 40° Northeast 323 372 16,000 1,620 Climbing Indianapolis Center
06:52PM 39.4367 -84.5289 40° Northeast 345 397 17,500 1,320 Climbing Indianapolis Center
06:53PM 39.5150 -84.4461 39° Northeast 357 411 18,700 1,500 Climbing Indianapolis Center
06:55PM 39.5928 -84.3642 39° Northeast 356 410 20,600 1,500 Climbing Indianapolis Center
06:56PM 39.6708 -84.2853 38° Northeast 352 405 21,800 1,260 Climbing Indianapolis Center
06:57PM 39.7511 -84.2019 39° Northeast 362 417 23,200 1,140 Climbing Indianapolis Center
06:58PM 39.8467 -84.1036 38° Northeast 369 425 24,200 720 Climbing Indianapolis Center
06:59PM 39.9261 -84.0025 44° Northeast 389 448 24,700 480 Climbing Indianapolis Center
07:00PM 40.0114 -83.8975 43° Northeast 408 470 25,200 480 Climbing Indianapolis Center
07:01PM 40.0975 -83.7892 44° Northeast 419 482 25,700 540 Climbing Indianapolis Center
07:02PM 40.1839 -83.6792 44° Northeast 425 489 26,300 480 Climbing Indianapolis Center
07:03PM 40.2719 -83.5686 44° Northeast 431 496 26,700 480 Climbing Indianapolis Center
07:04PM 40.3606 -83.4572 44° Northeast 433 498 27,300 540 Climbing Indianapolis Center
07:05PM 40.4472 -83.3461 44° Northeast 433 498 27,800 480 Climbing Indianapolis Center
07:06PM 40.5344 -83.2344 44° Northeast 432 497 28,300 480 Climbing Indianapolis Center
07:07PM 40.6222 -83.1236 44° Northeast 433 498 28,900 300 Climbing Indianapolis Center
07:08PM 40.7069 -83.0125 45° Northeast 429 494 29,000  Climbing Indianapolis Center
07:09PM 40.7936 -82.9017 44° Northeast 429 494 29,000  Level Indianapolis Center
07:10PM 40.8797 -82.7906 44° Northeast 429 494 29,000  Level Indianapolis Center
07:10PM 40.9244 -82.7322 45° Northeast 419 482 29,000  Level Cleveland Center
07:11PM 40.9750 -82.5853 65° Northeast 424 488 29,000  Level Cleveland Center
07:12PM 41.0092 -82.4239 74° East 445 512 29,000  Level Cleveland Center
07:13PM 41.0431 -82.2569 75° East 455 524 29,000  Level Cleveland Center
07:14PM 41.0764 -82.0953 75° East 455 524 29,000  Level Cleveland Center
07:15PM 41.1097 -81.9308 75° East 448 516 29,000  Level Cleveland Center
07:16PM 41.1428 -81.7825 73° East 454 522 29,000  Level Cleveland Center
07:17PM 41.1756 -81.6231 75° East 454 522 29,000  Level Cleveland Center
07:18PM 41.2083 -81.4608 75° East 454 522 29,000  Level Cleveland Center
07:19PM 41.2408 -81.2817 76° East 454 522 29,000  Level Cleveland Center
07:20PM 41.2728 -81.1164 76° East 454 522 29,000  Level Cleveland Center
07:21PM 41.3069 -80.9536 74° East 454 522 29,000  Level Cleveland Center
07:22PM 41.3386 -80.7850 76° East 460 529 29,000  Level Cleveland Center
07:23PM 41.3700 -80.6192 76° East 455 524 29,000  Level Cleveland Center
07:24PM 41.3992 -80.4725 75° East 455 524 29,000  Level Cleveland Center
07:25PM 41.4342 -80.2922 75° East 455 524 29,000  Level Cleveland Center
07:26PM 41.4650 -80.1258 76° East 450 518 29,000  Level Cleveland Center
07:27PM 41.4936 -79.9789 75° East 450 518 29,000  Level Cleveland Center
07:28PM 41.5239 -79.8122 76° East 450 518 29,000  Level Cleveland Center
07:29PM 41.5539 -79.6481 76° East 450 518 29,000  Level Cleveland Center
07:30PM 41.5836 -79.4839 76° East 450 518 29,000  Level Cleveland Center
07:31PM 41.6133 -79.3167 77° East 450 518 29,000  Level Cleveland Center
07:32PM 41.6425 -79.1550 76° East 450 518 29,000  Level Cleveland Center
07:33PM 41.6717 -78.9875 77° East 450 518 29,000  Level Cleveland Center
07:34PM 41.7006 -78.8256 77° East 450 518 29,000  Level Cleveland Center
07:35PM 41.7292 -78.6578 77° East 450 518 29,000  Level Cleveland Center
07:36PM 41.7556 -78.4956 78° East 450 518 29,000  Level Cleveland Center
07:38PM 41.8075 -78.2039 76° East 446 513 29,000  Level New York Center
07:39PM 41.8367 -78.0372 77° East 446 513 29,000  Level New York Center
07:40PM 41.8589 -77.8725 80° East 446 513 29,000  Level New York Center
07:41PM 41.8233 -77.6989 105° East 454 522 29,000  Level New York Center
07:42PM 41.7772 -77.5244 109° East 464 534 29,000  Level New York Center
07:43PM 41.7325 -77.3558 110° East 476 548 29,000  Level New York Center
07:44PM 41.6856 -77.1844 110° East 481 554 29,000  Level New York Center
07:45PM 41.6408 -77.0108 109° East 481 554 29,000  Level New York Center
07:46PM 41.5933 -76.8400 110° East 481 554 29,000  Level New York Center
07:47PM 41.5458 -76.6664 110° East 492 566 29,000  Level New York Center
07:48PM 41.4981 -76.4933 110° East 492 566 29,000  Level New York Center
07:49PM 41.4594 -76.3433 109° East 492 566 29,000  Level New York Center
07:50PM 41.4114 -76.1678 110° East 492 566 29,000  Level New York Center
07:51PM 41.3622 -76.0064 112° Southeast 486 559 29,000  Level New York Center
07:52PM 41.3150 -75.8506 112° Southeast 469 540 29,000 -660 Level New York Center
07:53PM 41.2697 -75.6872 110° East 463 533 27,700 -1,740 Descending New York Center
07:54PM 41.2181 -75.5261 113° Southeast 463 533 25,500 -2,160 Descending New York Center
07:55PM 41.1656 -75.3736 115° Southeast 463 533 23,500 -1,320 Descending New York Center
07:56PM 41.1133 -75.2186 114° Southeast 463 533 23,000 -300 Descending New York Center
07:57PM 41.0606 -75.0667 115° Southeast 463 533 23,000  Level New York Center
07:58PM 41.0061 -74.8981 113° Southeast 457 526 23,000  Level New York Center
07:59PM 40.9806 -74.7344 102° East 446 513 23,000 -360 Level New York Center
08:00PM 40.9628 -74.5794 99° East 434 499 22,300 -1,380 Descending New York Center
08:01PM 40.9469 -74.4219 98° East 434 499 20,200 -2,100 Descending New York Center
08:02PM 40.9333 -74.3500 104° East 427 491 19,200 -840 Descending New York TRACON
08:03PM 40.8667 -74.2000 120° Southeast 429 494 19,000 -780 Descending New York TRACON
08:04PM 40.7833 -74.1000 138° Southeast 427 491 17,700 -1,500 Descending New York TRACON
08:04PM 40.7000 -74.0333 149° Southeast 413 475 16,200 -1,560 Descending New York TRACON
08:06PM 40.5833 -73.9500 152° Southeast 422 486 14,600 -1,980 Descending New York TRACON
08:07PM 40.5167 -73.8667 136° Southeast 343 395 12,100 -2,580 Descending New York TRACON
08:08PM 40.4333 -73.8000 149° Southeast 321 369 9,500 -2,880 Descending New York TRACON
08:09PM 40.3833 -73.7000 123° Southeast 308 354 6,400 -2,820 Descending New York TRACON
08:10PM 40.3667 -73.6167 105° East 288 331 3,900 -2,160 Descending New York TRACON
08:10PM 40.3947 -73.5833 42° Northeast 218 251 3,100 -780 Descending New York Center
08:11PM 40.4167 -73.5333 60° Northeast 216 249 3,100 -120 Level New York TRACON
08:12PM 40.4333 -73.4833 66° East 188 216 3,000 -300 Descending New York TRACON
08:13PM 40.4833 -73.4500 27° Northeast 172 198 2,500 -480 Descending New York TRACON
08:14PM 40.5167 -73.4833 323° Northwest 157 181 2,100 -300 Descending New York TRACON
08:15PM 40.5333 -73.5333 294° West 152 175 2,000  Descending New York TRACON
08:16PM 40.5667 -73.5667 323° Northwest 152 175 2,100  Climbing New York TRACON
08:17PM 40.5833 -73.6167 294° West 136 157 2,100  Level New York TRACON